sensor_id;sensor_type;location;lat;lon;timestamp;P1;durP1;ratioP1;P2;durP2;ratioP2
59109;SDS011;44895;47.438;18.978;2022-08-03T00:02:13;14.57;;;3.00;;
59109;SDS011;44895;47.438;18.978;2022-08-03T00:05:17;4.97;;;2.00;;
59109;SDS011;44895;47.438;18.978;2022-08-03T00:08:21;4.97;;;1.90;;
59109;SDS011;44895;47.438;18.978;2022-08-03T00:11:24;3.50;;;1.45;;
59109;SDS011;44895;47.438;18.978;2022-08-03T00:14:28;4.15;;;1.98;;
59109;SDS011;44895;47.438;18.978;2022-08-03T00:17:32;4.18;;;1.80;;
59109;SDS011;44895;47.438;18.978;2022-08-03T00:20:36;5.03;;;2.13;;
59109;SDS011;44895;47.438;18.978;2022-08-03T00:23:40;4.78;;;2.58;;
59109;SDS011;44895;47.438;18.978;2022-08-03T00:26:44;5.28;;;2.00;;
59109;SDS011;44895;47.438;18.978;2022-08-03T00:29:48;6.05;;;2.33;;
59109;SDS011;44895;47.438;18.978;2022-08-03T00:32:51;4.75;;;2.10;;
59109;SDS011;44895;47.438;18.978;2022-08-03T00:35:55;4.22;;;1.98;;
59109;SDS011;44895;47.438;18.978;2022-08-03T00:38:59;4.93;;;2.20;;
59109;SDS011;44895;47.438;18.978;2022-08-03T00:42:03;4.22;;;2.03;;
59109;SDS011;44895;47.438;18.978;2022-08-03T00:45:07;4.68;;;2.00;;
59109;SDS011;44895;47.438;18.978;2022-08-03T00:48:11;5.45;;;2.20;;
59109;SDS011;44895;47.438;18.978;2022-08-03T00:51:15;5.28;;;2.47;;
59109;SDS011;44895;47.438;18.978;2022-08-03T00:54:20;5.90;;;2.47;;
59109;SDS011;44895;47.438;18.978;2022-08-03T00:57:25;5.43;;;2.60;;
59109;SDS011;44895;47.438;18.978;2022-08-03T01:00:32;5.43;;;2.15;;
59109;SDS011;44895;47.438;18.978;2022-08-03T01:03:41;4.88;;;2.15;;
59109;SDS011;44895;47.438;18.978;2022-08-03T01:06:47;5.35;;;2.08;;
59109;SDS011;44895;47.438;18.978;2022-08-03T01:10:02;5.15;;;2.50;;
59109;SDS011;44895;47.438;18.978;2022-08-03T01:13:28;4.68;;;2.40;;
59109;SDS011;44895;47.438;18.978;2022-08-03T01:17:04;5.53;;;2.20;;
59109;SDS011;44895;47.438;18.978;2022-08-03T01:20:21;5.78;;;3.35;;
59109;SDS011;44895;47.438;18.978;2022-08-03T01:23:33;5.90;;;2.13;;
59109;SDS011;44895;47.438;18.978;2022-08-03T01:27:04;5.78;;;2.72;;
59109;SDS011;44895;47.438;18.978;2022-08-03T01:30:14;5.63;;;2.67;;
59109;SDS011;44895;47.438;18.978;2022-08-03T01:33:21;5.72;;;2.78;;
59109;SDS011;44895;47.438;18.978;2022-08-03T01:36:32;5.25;;;2.25;;
59109;SDS011;44895;47.438;18.978;2022-08-03T01:39:41;7.13;;;3.67;;
59109;SDS011;44895;47.438;18.978;2022-08-03T01:42:47;6.45;;;2.55;;
59109;SDS011;44895;47.438;18.978;2022-08-03T01:45:53;5.75;;;3.25;;
59109;SDS011;44895;47.438;18.978;2022-08-03T01:48:59;5.90;;;2.97;;
59109;SDS011;44895;47.438;18.978;2022-08-03T01:52:06;5.90;;;2.97;;
59109;SDS011;44895;47.438;18.978;2022-08-03T01:55:11;7.15;;;2.97;;
59109;SDS011;44895;47.438;18.978;2022-08-03T01:58:19;6.60;;;2.90;;
59109;SDS011;44895;47.438;18.978;2022-08-03T02:01:27;6.03;;;3.40;;
59109;SDS011;44895;47.438;18.978;2022-08-03T02:04:32;7.30;;;3.50;;
59109;SDS011;44895;47.438;18.978;2022-08-03T02:07:39;6.78;;;4.00;;
59109;SDS011;44895;47.438;18.978;2022-08-03T02:10:44;6.20;;;3.30;;
59109;SDS011;44895;47.438;18.978;2022-08-03T02:13:50;7.75;;;4.30;;
59109;SDS011;44895;47.438;18.978;2022-08-03T02:16:56;6.45;;;3.92;;
59109;SDS011;44895;47.438;18.978;2022-08-03T02:20:01;6.43;;;4.00;;
59109;SDS011;44895;47.438;18.978;2022-08-03T02:23:07;7.13;;;4.00;;
59109;SDS011;44895;47.438;18.978;2022-08-03T02:26:14;6.40;;;3.58;;
59109;SDS011;44895;47.438;18.978;2022-08-03T02:29:23;9.77;;;4.53;;
59109;SDS011;44895;47.438;18.978;2022-08-03T02:32:38;7.95;;;4.78;;
59109;SDS011;44895;47.438;18.978;2022-08-03T02:35:46;8.68;;;4.07;;
59109;SDS011;44895;47.438;18.978;2022-08-03T02:38:52;7.43;;;3.80;;
59109;SDS011;44895;47.438;18.978;2022-08-03T02:42:00;7.93;;;4.72;;
59109;SDS011;44895;47.438;18.978;2022-08-03T02:45:08;7.38;;;4.05;;
59109;SDS011;44895;47.438;18.978;2022-08-03T02:48:19;9.65;;;4.65;;
59109;SDS011;44895;47.438;18.978;2022-08-03T02:51:27;8.40;;;4.07;;
59109;SDS011;44895;47.438;18.978;2022-08-03T02:54:34;7.05;;;4.45;;
59109;SDS011;44895;47.438;18.978;2022-08-03T02:57:40;8.15;;;4.45;;
59109;SDS011;44895;47.438;18.978;2022-08-03T03:00:47;7.72;;;4.15;;
59109;SDS011;44895;47.438;18.978;2022-08-03T03:03:57;7.97;;;4.35;;
59109;SDS011;44895;47.438;18.978;2022-08-03T03:07:02;9.48;;;5.70;;
59109;SDS011;44895;47.438;18.978;2022-08-03T03:10:08;7.05;;;4.38;;
59109;SDS011;44895;47.438;18.978;2022-08-03T03:13:13;7.75;;;4.55;;
59109;SDS011;44895;47.438;18.978;2022-08-03T03:16:18;8.23;;;4.88;;
59109;SDS011;44895;47.438;18.978;2022-08-03T03:19:23;7.05;;;4.00;;
59109;SDS011;44895;47.438;18.978;2022-08-03T03:22:27;6.93;;;4.60;;
59109;SDS011;44895;47.438;18.978;2022-08-03T03:25:33;8.32;;;4.68;;
59109;SDS011;44895;47.438;18.978;2022-08-03T03:28:39;6.80;;;4.60;;
59109;SDS011;44895;47.438;18.978;2022-08-03T03:31:43;7.07;;;4.60;;
59109;SDS011;44895;47.438;18.978;2022-08-03T03:34:47;8.30;;;5.28;;
59109;SDS011;44895;47.438;18.978;2022-08-03T03:37:51;9.23;;;5.18;;
59109;SDS011;44895;47.438;18.978;2022-08-03T03:40:55;10.65;;;4.97;;
59109;SDS011;44895;47.438;18.978;2022-08-03T03:43:59;9.18;;;5.55;;
59109;SDS011;44895;47.438;18.978;2022-08-03T03:47:02;8.73;;;4.63;;
59109;SDS011;44895;47.438;18.978;2022-08-03T03:50:06;9.77;;;4.82;;
59109;SDS011;44895;47.438;18.978;2022-08-03T03:53:11;7.85;;;4.60;;
59109;SDS011;44895;47.438;18.978;2022-08-03T03:56:16;8.10;;;4.85;;
59109;SDS011;44895;47.438;18.978;2022-08-03T03:59:20;9.60;;;4.13;;
59109;SDS011;44895;47.438;18.978;2022-08-03T04:02:23;8.15;;;4.38;;
59109;SDS011;44895;47.438;18.978;2022-08-03T04:05:27;7.00;;;4.57;;
59109;SDS011;44895;47.438;18.978;2022-08-03T04:08:50;12.50;;;4.75;;
59109;SDS011;44895;47.438;18.978;2022-08-03T04:12:12;9.60;;;5.15;;
59109;SDS011;44895;47.438;18.978;2022-08-03T04:15:16;7.75;;;4.68;;
59109;SDS011;44895;47.438;18.978;2022-08-03T04:18:24;7.97;;;5.10;;
59109;SDS011;44895;47.438;18.978;2022-08-03T04:21:30;8.43;;;4.65;;
59109;SDS011;44895;47.438;18.978;2022-08-03T04:24:41;9.02;;;5.18;;
59109;SDS011;44895;47.438;18.978;2022-08-03T04:27:48;8.95;;;5.57;;
59109;SDS011;44895;47.438;18.978;2022-08-03T04:30:54;8.50;;;5.32;;
59109;SDS011;44895;47.438;18.978;2022-08-03T04:34:00;10.32;;;6.15;;
59109;SDS011;44895;47.438;18.978;2022-08-03T04:37:04;7.93;;;4.55;;
59109;SDS011;44895;47.438;18.978;2022-08-03T04:40:15;8.02;;;4.80;;
59109;SDS011;44895;47.438;18.978;2022-08-03T04:43:24;8.80;;;4.90;;
59109;SDS011;44895;47.438;18.978;2022-08-03T04:46:31;8.48;;;4.57;;
59109;SDS011;44895;47.438;18.978;2022-08-03T04:49:38;7.38;;;4.60;;
59109;SDS011;44895;47.438;18.978;2022-08-03T04:52:42;7.80;;;5.13;;
59109;SDS011;44895;47.438;18.978;2022-08-03T04:55:46;9.75;;;5.72;;
59109;SDS011;44895;47.438;18.978;2022-08-03T04:58:50;7.18;;;3.38;;
59109;SDS011;44895;47.438;18.978;2022-08-03T05:01:54;8.15;;;5.03;;
59109;SDS011;44895;47.438;18.978;2022-08-03T05:04:58;7.57;;;4.38;;
59109;SDS011;44895;47.438;18.978;2022-08-03T05:08:02;8.60;;;5.65;;
59109;SDS011;44895;47.438;18.978;2022-08-03T05:11:05;8.52;;;5.28;;
59109;SDS011;44895;47.438;18.978;2022-08-03T05:14:09;8.57;;;4.75;;
59109;SDS011;44895;47.438;18.978;2022-08-03T05:17:14;7.35;;;4.72;;
59109;SDS011;44895;47.438;18.978;2022-08-03T05:20:18;9.00;;;4.95;;
59109;SDS011;44895;47.438;18.978;2022-08-03T05:23:22;7.80;;;5.07;;
59109;SDS011;44895;47.438;18.978;2022-08-03T05:26:26;7.93;;;5.03;;
59109;SDS011;44895;47.438;18.978;2022-08-03T05:29:30;7.22;;;4.50;;
59109;SDS011;44895;47.438;18.978;2022-08-03T05:32:33;9.07;;;4.50;;
59109;SDS011;44895;47.438;18.978;2022-08-03T05:35:37;10.38;;;5.07;;
59109;SDS011;44895;47.438;18.978;2022-08-03T05:38:41;10.80;;;5.95;;
59109;SDS011;44895;47.438;18.978;2022-08-03T05:41:44;8.30;;;4.78;;
59109;SDS011;44895;47.438;18.978;2022-08-03T05:44:48;7.93;;;4.50;;
59109;SDS011;44895;47.438;18.978;2022-08-03T05:47:52;8.00;;;4.63;;
59109;SDS011;44895;47.438;18.978;2022-08-03T05:50:56;8.23;;;4.75;;
59109;SDS011;44895;47.438;18.978;2022-08-03T05:53:59;8.18;;;3.92;;
59109;SDS011;44895;47.438;18.978;2022-08-03T05:57:03;8.27;;;4.07;;
59109;SDS011;44895;47.438;18.978;2022-08-03T06:00:07;8.00;;;3.58;;
59109;SDS011;44895;47.438;18.978;2022-08-03T06:03:15;7.25;;;3.38;;
59109;SDS011;44895;47.438;18.978;2022-08-03T06:06:19;7.55;;;3.95;;
59109;SDS011;44895;47.438;18.978;2022-08-03T06:09:23;7.57;;;3.70;;
59109;SDS011;44895;47.438;18.978;2022-08-03T06:12:27;7.07;;;3.10;;
59109;SDS011;44895;47.438;18.978;2022-08-03T06:15:31;7.40;;;3.85;;
59109;SDS011;44895;47.438;18.978;2022-08-03T06:18:35;6.20;;;3.60;;
59109;SDS011;44895;47.438;18.978;2022-08-03T06:21:40;7.47;;;3.28;;
59109;SDS011;44895;47.438;18.978;2022-08-03T06:24:44;6.55;;;3.88;;
59109;SDS011;44895;47.438;18.978;2022-08-03T06:27:48;7.85;;;4.38;;
59109;SDS011;44895;47.438;18.978;2022-08-03T06:30:52;7.63;;;4.15;;
59109;SDS011;44895;47.438;18.978;2022-08-03T06:33:55;6.95;;;3.70;;
59109;SDS011;44895;47.438;18.978;2022-08-03T06:36:59;6.57;;;4.07;;
59109;SDS011;44895;47.438;18.978;2022-08-03T06:40:03;6.32;;;3.33;;
59109;SDS011;44895;47.438;18.978;2022-08-03T06:43:07;6.90;;;4.10;;
59109;SDS011;44895;47.438;18.978;2022-08-03T06:46:11;6.75;;;3.95;;
59109;SDS011;44895;47.438;18.978;2022-08-03T06:49:14;6.00;;;3.33;;
59109;SDS011;44895;47.438;18.978;2022-08-03T06:52:18;7.05;;;3.90;;
59109;SDS011;44895;47.438;18.978;2022-08-03T06:55:22;7.55;;;4.18;;
59109;SDS011;44895;47.438;18.978;2022-08-03T06:58:26;7.10;;;3.70;;
59109;SDS011;44895;47.438;18.978;2022-08-03T07:01:30;8.15;;;3.95;;
59109;SDS011;44895;47.438;18.978;2022-08-03T07:04:34;7.55;;;3.72;;
59109;SDS011;44895;47.438;18.978;2022-08-03T07:07:37;7.38;;;4.15;;
59109;SDS011;44895;47.438;18.978;2022-08-03T07:10:41;7.13;;;4.05;;
59109;SDS011;44895;47.438;18.978;2022-08-03T07:13:45;7.05;;;4.15;;
59109;SDS011;44895;47.438;18.978;2022-08-03T07:16:49;7.20;;;4.32;;
59109;SDS011;44895;47.438;18.978;2022-08-03T07:19:53;7.40;;;4.25;;
59109;SDS011;44895;47.438;18.978;2022-08-03T07:22:57;6.57;;;3.65;;
59109;SDS011;44895;47.438;18.978;2022-08-03T07:26:01;7.03;;;4.45;;
59109;SDS011;44895;47.438;18.978;2022-08-03T07:29:05;7.20;;;3.58;;
59109;SDS011;44895;47.438;18.978;2022-08-03T07:32:08;8.65;;;4.38;;
59109;SDS011;44895;47.438;18.978;2022-08-03T07:35:12;13.05;;;4.90;;
59109;SDS011;44895;47.438;18.978;2022-08-03T07:38:16;9.38;;;4.90;;
59109;SDS011;44895;47.438;18.978;2022-08-03T07:41:19;6.97;;;4.50;;
59109;SDS011;44895;47.438;18.978;2022-08-03T07:44:23;6.90;;;4.40;;
59109;SDS011;44895;47.438;18.978;2022-08-03T07:47:28;7.63;;;4.30;;
59109;SDS011;44895;47.438;18.978;2022-08-03T07:50:32;7.55;;;4.75;;
59109;SDS011;44895;47.438;18.978;2022-08-03T07:53:36;7.35;;;4.28;;
59109;SDS011;44895;47.438;18.978;2022-08-03T07:56:40;6.65;;;4.18;;
59109;SDS011;44895;47.438;18.978;2022-08-03T07:59:44;6.35;;;3.65;;
59109;SDS011;44895;47.438;18.978;2022-08-03T08:02:49;6.20;;;3.33;;
59109;SDS011;44895;47.438;18.978;2022-08-03T08:05:53;8.73;;;4.57;;
59109;SDS011;44895;47.438;18.978;2022-08-03T08:08:57;6.60;;;4.00;;
59109;SDS011;44895;47.438;18.978;2022-08-03T08:15:08;7.10;;;4.15;;
59109;SDS011;44895;47.438;18.978;2022-08-03T08:18:12;7.82;;;4.45;;
59109;SDS011;44895;47.438;18.978;2022-08-03T08:21:15;10.45;;;4.00;;
59109;SDS011;44895;47.438;18.978;2022-08-03T08:24:19;7.93;;;4.65;;
59109;SDS011;44895;47.438;18.978;2022-08-03T08:27:23;7.30;;;4.40;;
59109;SDS011;44895;47.438;18.978;2022-08-03T08:30:27;7.32;;;4.25;;
59109;SDS011;44895;47.438;18.978;2022-08-03T08:33:31;8.98;;;3.97;;
59109;SDS011;44895;47.438;18.978;2022-08-03T08:36:36;10.15;;;4.82;;
59109;SDS011;44895;47.438;18.978;2022-08-03T08:39:40;6.65;;;3.88;;
59109;SDS011;44895;47.438;18.978;2022-08-03T08:42:44;7.20;;;3.65;;
59109;SDS011;44895;47.438;18.978;2022-08-03T08:45:49;8.13;;;4.30;;
59109;SDS011;44895;47.438;18.978;2022-08-03T08:48:56;6.88;;;4.35;;
59109;SDS011;44895;47.438;18.978;2022-08-03T08:52:02;10.98;;;4.88;;
59109;SDS011;44895;47.438;18.978;2022-08-03T08:55:09;7.93;;;4.30;;
59109;SDS011;44895;47.438;18.978;2022-08-03T08:58:16;5.93;;;3.70;;
59109;SDS011;44895;47.438;18.978;2022-08-03T09:01:23;6.43;;;3.65;;
59109;SDS011;44895;47.438;18.978;2022-08-03T09:04:27;7.35;;;4.63;;
59109;SDS011;44895;47.438;18.978;2022-08-03T09:07:32;7.38;;;4.47;;
59109;SDS011;44895;47.438;18.978;2022-08-03T09:10:36;6.22;;;3.97;;
59109;SDS011;44895;47.438;18.978;2022-08-03T09:13:39;9.63;;;4.40;;
59109;SDS011;44895;47.438;18.978;2022-08-03T09:16:59;6.25;;;3.58;;
59109;SDS011;44895;47.438;18.978;2022-08-03T09:20:05;7.85;;;4.10;;
59109;SDS011;44895;47.438;18.978;2022-08-03T09:23:11;7.40;;;4.90;;
59109;SDS011;44895;47.438;18.978;2022-08-03T09:26:19;7.07;;;5.03;;
59109;SDS011;44895;47.438;18.978;2022-08-03T09:29:26;7.78;;;4.38;;
59109;SDS011;44895;47.438;18.978;2022-08-03T09:32:34;7.97;;;4.20;;
59109;SDS011;44895;47.438;18.978;2022-08-03T09:35:40;7.72;;;5.18;;
59109;SDS011;44895;47.438;18.978;2022-08-03T09:38:59;7.20;;;3.72;;
59109;SDS011;44895;47.438;18.978;2022-08-03T09:42:15;8.32;;;4.53;;
59109;SDS011;44895;47.438;18.978;2022-08-03T09:45:27;9.07;;;4.47;;
59109;SDS011;44895;47.438;18.978;2022-08-03T09:48:32;6.68;;;3.70;;
59109;SDS011;44895;47.438;18.978;2022-08-03T09:51:38;6.20;;;3.58;;
59109;SDS011;44895;47.438;18.978;2022-08-03T09:54:42;6.72;;;4.22;;
59109;SDS011;44895;47.438;18.978;2022-08-03T09:57:46;8.48;;;3.40;;
59109;SDS011;44895;47.438;18.978;2022-08-03T10:04:02;7.32;;;3.47;;
59109;SDS011;44895;47.438;18.978;2022-08-03T10:07:07;8.70;;;3.60;;
59109;SDS011;44895;47.438;18.978;2022-08-03T10:10:12;7.40;;;4.13;;
59109;SDS011;44895;47.438;18.978;2022-08-03T10:13:17;6.07;;;3.15;;
59109;SDS011;44895;47.438;18.978;2022-08-03T10:16:21;6.68;;;3.50;;
59109;SDS011;44895;47.438;18.978;2022-08-03T10:19:25;7.40;;;3.83;;
59109;SDS011;44895;47.438;18.978;2022-08-03T10:22:31;6.07;;;3.53;;
59109;SDS011;44895;47.438;18.978;2022-08-03T10:25:36;7.35;;;3.22;;
59109;SDS011;44895;47.438;18.978;2022-08-03T10:28:46;7.72;;;4.32;;
59109;SDS011;44895;47.438;18.978;2022-08-03T10:31:53;7.05;;;4.20;;
59109;SDS011;44895;47.438;18.978;2022-08-03T10:35:07;6.18;;;3.55;;
59109;SDS011;44895;47.438;18.978;2022-08-03T10:38:17;6.30;;;3.87;;
59109;SDS011;44895;47.438;18.978;2022-08-03T10:41:25;5.43;;;3.05;;
59109;SDS011;44895;47.438;18.978;2022-08-03T10:44:36;8.55;;;3.53;;
59109;SDS011;44895;47.438;18.978;2022-08-03T10:47:44;6.40;;;3.80;;
59109;SDS011;44895;47.438;18.978;2022-08-03T10:50:49;7.72;;;3.90;;
59109;SDS011;44895;47.438;18.978;2022-08-03T10:53:54;5.82;;;3.40;;
59109;SDS011;44895;47.438;18.978;2022-08-03T10:56:57;6.32;;;3.22;;
59109;SDS011;44895;47.438;18.978;2022-08-03T11:00:21;5.68;;;2.75;;
59109;SDS011;44895;47.438;18.978;2022-08-03T11:03:25;6.82;;;3.55;;
59109;SDS011;44895;47.438;18.978;2022-08-03T11:06:29;5.70;;;3.17;;
59109;SDS011;44895;47.438;18.978;2022-08-03T11:09:40;7.05;;;3.45;;
59109;SDS011;44895;47.438;18.978;2022-08-03T11:12:45;7.07;;;3.33;;
59109;SDS011;44895;47.438;18.978;2022-08-03T11:15:51;6.03;;;3.10;;
59109;SDS011;44895;47.438;18.978;2022-08-03T11:18:59;5.45;;;2.72;;
59109;SDS011;44895;47.438;18.978;2022-08-03T11:22:04;6.35;;;2.92;;
59109;SDS011;44895;47.438;18.978;2022-08-03T11:25:07;5.32;;;3.08;;
59109;SDS011;44895;47.438;18.978;2022-08-03T11:28:24;5.72;;;3.30;;
59109;SDS011;44895;47.438;18.978;2022-08-03T11:41:02;4.43;;;2.30;;
59109;SDS011;44895;47.438;18.978;2022-08-03T11:44:06;6.40;;;2.92;;
59109;SDS011;44895;47.438;18.978;2022-08-03T11:47:12;3.75;;;1.85;;
59109;SDS011;44895;47.438;18.978;2022-08-03T11:50:20;7.82;;;2.72;;
59109;SDS011;44895;47.438;18.978;2022-08-03T11:53:24;4.80;;;2.35;;
59109;SDS011;44895;47.438;18.978;2022-08-03T11:56:43;5.15;;;2.88;;
59109;SDS011;44895;47.438;18.978;2022-08-03T11:59:48;8.05;;;4.68;;
59109;SDS011;44895;47.438;18.978;2022-08-03T12:06:09;4.75;;;2.10;;
59109;SDS011;44895;47.438;18.978;2022-08-03T12:09:15;4.07;;;2.00;;
59109;SDS011;44895;47.438;18.978;2022-08-03T12:12:18;4.13;;;1.90;;
59109;SDS011;44895;47.438;18.978;2022-08-03T12:15:26;4.88;;;2.25;;
59109;SDS011;44895;47.438;18.978;2022-08-03T12:18:30;4.07;;;1.92;;
59109;SDS011;44895;47.438;18.978;2022-08-03T12:21:38;11.02;;;3.83;;
59109;SDS011;44895;47.438;18.978;2022-08-03T12:28:05;4.38;;;2.45;;
59109;SDS011;44895;47.438;18.978;2022-08-03T12:31:10;5.07;;;2.35;;
59109;SDS011;44895;47.438;18.978;2022-08-03T12:34:15;5.43;;;2.97;;
59109;SDS011;44895;47.438;18.978;2022-08-03T12:37:19;4.75;;;2.45;;
59109;SDS011;44895;47.438;18.978;2022-08-03T12:40:24;5.72;;;2.88;;
59109;SDS011;44895;47.438;18.978;2022-08-03T12:43:29;9.65;;;2.75;;
59109;SDS011;44895;47.438;18.978;2022-08-03T12:46:37;5.38;;;2.88;;
59109;SDS011;44895;47.438;18.978;2022-08-03T12:49:46;6.03;;;3.58;;
59109;SDS011;44895;47.438;18.978;2022-08-03T12:52:56;5.63;;;2.72;;
59109;SDS011;44895;47.438;18.978;2022-08-03T12:56:04;5.75;;;2.83;;
59109;SDS011;44895;47.438;18.978;2022-08-03T12:59:24;5.68;;;2.80;;
59109;SDS011;44895;47.438;18.978;2022-08-03T13:02:29;6.00;;;2.88;;
59109;SDS011;44895;47.438;18.978;2022-08-03T13:05:43;5.18;;;2.55;;
59109;SDS011;44895;47.438;18.978;2022-08-03T13:08:47;5.43;;;2.85;;
59109;SDS011;44895;47.438;18.978;2022-08-03T13:12:05;5.07;;;2.75;;
59109;SDS011;44895;47.438;18.978;2022-08-03T13:15:09;6.32;;;3.15;;
59109;SDS011;44895;47.438;18.978;2022-08-03T13:18:13;4.78;;;2.78;;
59109;SDS011;44895;47.438;18.978;2022-08-03T13:21:18;5.45;;;2.95;;
59109;SDS011;44895;47.438;18.978;2022-08-03T13:24:22;6.25;;;3.05;;
59109;SDS011;44895;47.438;18.978;2022-08-03T13:27:27;6.00;;;2.97;;
59109;SDS011;44895;47.438;18.978;2022-08-03T13:30:32;6.07;;;2.95;;
59109;SDS011;44895;47.438;18.978;2022-08-03T13:33:36;5.82;;;2.65;;
59109;SDS011;44895;47.438;18.978;2022-08-03T13:36:41;5.60;;;2.88;;
59109;SDS011;44895;47.438;18.978;2022-08-03T13:39:44;5.50;;;2.92;;
59109;SDS011;44895;47.438;18.978;2022-08-03T13:42:48;5.30;;;2.80;;
59109;SDS011;44895;47.438;18.978;2022-08-03T13:45:52;6.45;;;3.08;;
59109;SDS011;44895;47.438;18.978;2022-08-03T13:48:56;5.50;;;3.05;;
59109;SDS011;44895;47.438;18.978;2022-08-03T13:51:59;6.03;;;3.13;;
59109;SDS011;44895;47.438;18.978;2022-08-03T13:55:04;5.75;;;3.00;;
59109;SDS011;44895;47.438;18.978;2022-08-03T13:58:09;7.15;;;3.22;;
59109;SDS011;44895;47.438;18.978;2022-08-03T14:01:14;6.28;;;3.17;;
59109;SDS011;44895;47.438;18.978;2022-08-03T14:04:18;5.80;;;3.13;;
59109;SDS011;44895;47.438;18.978;2022-08-03T14:07:22;5.78;;;2.95;;
59109;SDS011;44895;47.438;18.978;2022-08-03T14:10:26;5.85;;;2.97;;
59109;SDS011;44895;47.438;18.978;2022-08-03T14:13:30;4.53;;;2.38;;
59109;SDS011;44895;47.438;18.978;2022-08-03T14:16:34;5.40;;;3.10;;
59109;SDS011;44895;47.438;18.978;2022-08-03T14:19:38;4.88;;;2.75;;
59109;SDS011;44895;47.438;18.978;2022-08-03T14:22:42;5.40;;;2.63;;
59109;SDS011;44895;47.438;18.978;2022-08-03T14:25:46;6.68;;;3.75;;
59109;SDS011;44895;47.438;18.978;2022-08-03T14:28:49;6.40;;;2.95;;
59109;SDS011;44895;47.438;18.978;2022-08-03T14:31:53;6.40;;;3.05;;
59109;SDS011;44895;47.438;18.978;2022-08-03T14:34:57;6.45;;;3.05;;
59109;SDS011;44895;47.438;18.978;2022-08-03T14:38:01;6.15;;;2.90;;
59109;SDS011;44895;47.438;18.978;2022-08-03T14:41:05;5.47;;;2.92;;
59109;SDS011;44895;47.438;18.978;2022-08-03T14:44:09;5.78;;;3.13;;
59109;SDS011;44895;47.438;18.978;2022-08-03T14:47:12;5.03;;;2.67;;
59109;SDS011;44895;47.438;18.978;2022-08-03T14:50:16;10.15;;;5.68;;
59109;SDS011;44895;47.438;18.978;2022-08-03T14:53:20;4.95;;;2.40;;
59109;SDS011;44895;47.438;18.978;2022-08-03T14:56:24;5.25;;;2.55;;
59109;SDS011;44895;47.438;18.978;2022-08-03T14:59:28;5.13;;;2.83;;
59109;SDS011;44895;47.438;18.978;2022-08-03T15:02:31;6.18;;;2.97;;
59109;SDS011;44895;47.438;18.978;2022-08-03T15:05:35;6.10;;;3.20;;
59109;SDS011;44895;47.438;18.978;2022-08-03T15:08:39;5.32;;;2.53;;
59109;SDS011;44895;47.438;18.978;2022-08-03T15:11:43;6.28;;;2.80;;
59109;SDS011;44895;47.438;18.978;2022-08-03T15:14:46;6.55;;;3.45;;
59109;SDS011;44895;47.438;18.978;2022-08-03T15:17:50;4.75;;;2.38;;
59109;SDS011;44895;47.438;18.978;2022-08-03T15:20:54;5.65;;;2.58;;
59109;SDS011;44895;47.438;18.978;2022-08-03T15:23:58;6.07;;;3.15;;
59109;SDS011;44895;47.438;18.978;2022-08-03T15:27:01;4.72;;;2.65;;
59109;SDS011;44895;47.438;18.978;2022-08-03T15:30:05;5.57;;;2.80;;
59109;SDS011;44895;47.438;18.978;2022-08-03T15:33:09;7.22;;;3.05;;
59109;SDS011;44895;47.438;18.978;2022-08-03T15:36:13;5.70;;;2.85;;
59109;SDS011;44895;47.438;18.978;2022-08-03T15:39:17;6.35;;;3.47;;
59109;SDS011;44895;47.438;18.978;2022-08-03T15:42:21;5.95;;;2.95;;
59109;SDS011;44895;47.438;18.978;2022-08-03T15:45:25;7.70;;;3.35;;
59109;SDS011;44895;47.438;18.978;2022-08-03T15:48:29;5.18;;;2.75;;
59109;SDS011;44895;47.438;18.978;2022-08-03T15:51:32;5.57;;;3.28;;
59109;SDS011;44895;47.438;18.978;2022-08-03T15:54:36;5.95;;;3.28;;
59109;SDS011;44895;47.438;18.978;2022-08-03T15:57:40;6.10;;;3.05;;
59109;SDS011;44895;47.438;18.978;2022-08-03T16:00:44;7.55;;;3.00;;
59109;SDS011;44895;47.438;18.978;2022-08-03T16:03:48;5.75;;;3.20;;
59109;SDS011;44895;47.438;18.978;2022-08-03T16:06:52;4.68;;;2.60;;
59109;SDS011;44895;47.438;18.978;2022-08-03T16:09:55;5.82;;;3.38;;
59109;SDS011;44895;47.438;18.978;2022-08-03T16:12:59;5.20;;;2.50;;
59109;SDS011;44895;47.438;18.978;2022-08-03T16:16:03;5.75;;;3.20;;
59109;SDS011;44895;47.438;18.978;2022-08-03T16:19:06;5.32;;;2.50;;
59109;SDS011;44895;47.438;18.978;2022-08-03T16:22:10;7.93;;;3.25;;
59109;SDS011;44895;47.438;18.978;2022-08-03T16:25:15;5.85;;;2.88;;
59109;SDS011;44895;47.438;18.978;2022-08-03T16:28:19;4.72;;;2.40;;
59109;SDS011;44895;47.438;18.978;2022-08-03T16:31:23;4.82;;;2.30;;
59109;SDS011;44895;47.438;18.978;2022-08-03T16:34:29;7.50;;;3.35;;
59109;SDS011;44895;47.438;18.978;2022-08-03T16:37:32;13.43;;;2.75;;
59109;SDS011;44895;47.438;18.978;2022-08-03T16:40:36;6.28;;;3.17;;
59109;SDS011;44895;47.438;18.978;2022-08-03T16:43:40;5.75;;;2.95;;
59109;SDS011;44895;47.438;18.978;2022-08-03T16:46:43;4.85;;;2.47;;
59109;SDS011;44895;47.438;18.978;2022-08-03T16:49:47;5.65;;;2.97;;
59109;SDS011;44895;47.438;18.978;2022-08-03T16:52:51;5.85;;;2.85;;
59109;SDS011;44895;47.438;18.978;2022-08-03T16:55:55;6.40;;;3.08;;
59109;SDS011;44895;47.438;18.978;2022-08-03T16:58:58;4.82;;;2.47;;
59109;SDS011;44895;47.438;18.978;2022-08-03T17:02:02;5.30;;;2.80;;
59109;SDS011;44895;47.438;18.978;2022-08-03T17:05:07;4.78;;;2.50;;
59109;SDS011;44895;47.438;18.978;2022-08-03T17:08:11;5.55;;;2.95;;
59109;SDS011;44895;47.438;18.978;2022-08-03T17:11:15;5.88;;;3.20;;
59109;SDS011;44895;47.438;18.978;2022-08-03T17:14:19;5.18;;;2.83;;
59109;SDS011;44895;47.438;18.978;2022-08-03T17:17:30;7.55;;;3.47;;
59109;SDS011;44895;47.438;18.978;2022-08-03T17:20:36;5.63;;;2.80;;
59109;SDS011;44895;47.438;18.978;2022-08-03T17:23:43;6.68;;;3.17;;
59109;SDS011;44895;47.438;18.978;2022-08-03T17:26:52;6.40;;;2.72;;
59109;SDS011;44895;47.438;18.978;2022-08-03T17:30:03;6.53;;;2.45;;
59109;SDS011;44895;47.438;18.978;2022-08-03T17:33:07;7.40;;;3.08;;
59109;SDS011;44895;47.438;18.978;2022-08-03T17:36:12;5.95;;;2.22;;
59109;SDS011;44895;47.438;18.978;2022-08-03T17:39:16;5.82;;;2.65;;
59109;SDS011;44895;47.438;18.978;2022-08-03T17:42:21;7.55;;;2.85;;
59109;SDS011;44895;47.438;18.978;2022-08-03T17:45:26;6.97;;;3.13;;
59109;SDS011;44895;47.438;18.978;2022-08-03T17:48:30;7.60;;;3.35;;
59109;SDS011;44895;47.438;18.978;2022-08-03T17:51:39;8.95;;;4.32;;
59109;SDS011;44895;47.438;18.978;2022-08-03T17:54:50;11.55;;;5.82;;
59109;SDS011;44895;47.438;18.978;2022-08-03T17:58:05;9.55;;;5.63;;
59109;SDS011;44895;47.438;18.978;2022-08-03T18:01:15;9.65;;;3.83;;
59109;SDS011;44895;47.438;18.978;2022-08-03T18:04:49;5.75;;;3.72;;
59109;SDS011;44895;47.438;18.978;2022-08-03T18:07:57;6.68;;;3.63;;
59109;SDS011;44895;47.438;18.978;2022-08-03T18:11:12;7.85;;;3.13;;
59109;SDS011;44895;47.438;18.978;2022-08-03T18:14:21;6.70;;;3.88;;
59109;SDS011;44895;47.438;18.978;2022-08-03T18:17:47;6.25;;;3.28;;
59109;SDS011;44895;47.438;18.978;2022-08-03T18:20:54;6.20;;;3.25;;
59109;SDS011;44895;47.438;18.978;2022-08-03T18:23:59;6.55;;;3.28;;
59109;SDS011;44895;47.438;18.978;2022-08-03T18:27:03;6.10;;;3.15;;
59109;SDS011;44895;47.438;18.978;2022-08-03T18:30:09;7.35;;;3.35;;
59109;SDS011;44895;47.438;18.978;2022-08-03T18:33:15;5.00;;;2.67;;
59109;SDS011;44895;47.438;18.978;2022-08-03T18:36:19;6.43;;;2.85;;
59109;SDS011;44895;47.438;18.978;2022-08-03T18:39:24;11.20;;;3.30;;
59109;SDS011;44895;47.438;18.978;2022-08-03T18:42:31;6.55;;;3.00;;
59109;SDS011;44895;47.438;18.978;2022-08-03T18:45:36;9.35;;;3.20;;